sensor_id;sensor_type;location;lat;lon;timestamp;temperature;humidity
1455;DHT22;721;48.168;12.818;2022-12-08T00:02:05;2.80;29.60
1455;DHT22;721;48.168;12.818;2022-12-08T00:04:32;2.80;29.10
1455;DHT22;721;48.168;12.818;2022-12-08T00:07:21;2.80;29.70
1455;DHT22;721;48.168;12.818;2022-12-08T00:10:07;2.60;30.00
1455;DHT22;721;48.168;12.818;2022-12-08T00:12:34;2.70;30.30
1455;DHT22;721;48.168;12.818;2022-12-08T00:15:03;2.70;30.00
1455;DHT22;721;48.168;12.818;2022-12-08T00:17:30;2.60;33.50
1455;DHT22;721;48.168;12.818;2022-12-08T00:19:57;2.80;30.70
1455;DHT22;721;48.168;12.818;2022-12-08T00:22:25;2.90;28.20
1455;DHT22;721;48.168;12.818;2022-12-08T00:25:09;2.90;28.60
1455;DHT22;721;48.168;12.818;2022-12-08T00:27:36;3.00;27.20
1455;DHT22;721;48.168;12.818;2022-12-08T00:30:04;2.70;30.00
1455;DHT22;721;48.168;12.818;2022-12-08T00:32:31;2.70;31.40
1455;DHT22;721;48.168;12.818;2022-12-08T00:34:58;3.00;28.00
1455;DHT22;721;48.168;12.818;2022-12-08T00:37:26;3.10;26.60
1455;DHT22;721;48.168;12.818;2022-12-08T00:39:53;2.80;28.60
1455;DHT22;721;48.168;12.818;2022-12-08T00:42:20;3.00;27.30
1455;DHT22;721;48.168;12.818;2022-12-08T00:44:47;3.20;26.00
1455;DHT22;721;48.168;12.818;2022-12-08T00:47:13;3.10;25.70
1455;DHT22;721;48.168;12.818;2022-12-08T00:49:40;3.00;25.40
1455;DHT22;721;48.168;12.818;2022-12-08T00:52:07;2.90;27.80
1455;DHT22;721;48.168;12.818;2022-12-08T00:54:36;2.70;29.60
1455;DHT22;721;48.168;12.818;2022-12-08T00:57:03;2.60;30.80
1455;DHT22;721;48.168;12.818;2022-12-08T00:59:45;2.50;31.60
1455;DHT22;721;48.168;12.818;2022-12-08T01:02:12;2.60;30.80
1455;DHT22;721;48.168;12.818;2022-12-08T01:04:40;2.50;33.80
1455;DHT22;721;48.168;12.818;2022-12-08T01:07:07;2.80;30.80
1455;DHT22;721;48.168;12.818;2022-12-08T01:09:36;3.10;27.90
1455;DHT22;721;48.168;12.818;2022-12-08T01:12:03;3.00;27.50
1455;DHT22;721;48.168;12.818;2022-12-08T01:14:33;3.10;26.70
1455;DHT22;721;48.168;12.818;2022-12-08T01:17:00;3.10;25.60
1455;DHT22;721;48.168;12.818;2022-12-08T01:19:27;2.90;27.80
1455;DHT22;721;48.168;12.818;2022-12-08T01:21:55;2.70;29.90
1455;DHT22;721;48.168;12.818;2022-12-08T01:24:22;2.60;30.60
1455;DHT22;721;48.168;12.818;2022-12-08T01:26:50;2.50;30.90
1455;DHT22;721;48.168;12.818;2022-12-08T01:29:17;2.50;34.40
1455;DHT22;721;48.168;12.818;2022-12-08T01:31:44;2.90;30.70
1455;DHT22;721;48.168;12.818;2022-12-08T01:34:11;2.80;29.30
1455;DHT22;721;48.168;12.818;2022-12-08T01:36:40;2.80;31.60
1455;DHT22;721;48.168;12.818;2022-12-08T01:39:12;3.00;28.60
1455;DHT22;721;48.168;12.818;2022-12-08T01:41:40;3.10;27.30
1455;DHT22;721;48.168;12.818;2022-12-08T01:47:13;3.10;26.60
1455;DHT22;721;48.168;12.818;2022-12-08T01:49:40;2.70;29.20
1455;DHT22;721;48.168;12.818;2022-12-08T01:52:12;2.50;31.60
1455;DHT22;721;48.168;12.818;2022-12-08T01:54:43;2.60;30.70
1455;DHT22;721;48.168;12.818;2022-12-08T01:57:14;2.40;32.90
1455;DHT22;721;48.168;12.818;2022-12-08T01:59:46;2.40;35.50
1455;DHT22;721;48.168;12.818;2022-12-08T02:02:15;2.70;32.30
1455;DHT22;721;48.168;12.818;2022-12-08T02:04:42;2.90;29.80
1455;DHT22;721;48.168;12.818;2022-12-08T02:07:11;3.10;28.20
1455;DHT22;721;48.168;12.818;2022-12-08T02:09:40;3.20;26.30
1455;DHT22;721;48.168;12.818;2022-12-08T02:12:09;2.90;27.30
1455;DHT22;721;48.168;12.818;2022-12-08T02:14:36;2.60;31.80
1455;DHT22;721;48.168;12.818;2022-12-08T02:17:12;2.70;30.30
1455;DHT22;721;48.168;12.818;2022-12-08T02:20:12;2.60;32.10
1455;DHT22;721;48.168;12.818;2022-12-08T02:22:47;2.60;31.70
1455;DHT22;721;48.168;12.818;2022-12-08T02:25:23;2.50;34.00
1455;DHT22;721;48.168;12.818;2022-12-08T02:28:19;2.60;32.50
1455;DHT22;721;48.168;12.818;2022-12-08T02:30:53;2.50;33.50
1455;DHT22;721;48.168;12.818;2022-12-08T02:33:46;2.70;33.30
1455;DHT22;721;48.168;12.818;2022-12-08T02:36:22;2.90;29.30
1455;DHT22;721;48.168;12.818;2022-12-08T02:38:55;2.70;30.70
1455;DHT22;721;48.168;12.818;2022-12-08T02:41:31;2.60;31.70
1455;DHT22;721;48.168;12.818;2022-12-08T02:44:06;2.60;33.10
1455;DHT22;721;48.168;12.818;2022-12-08T02:46:39;2.70;33.40
1455;DHT22;721;48.168;12.818;2022-12-08T02:49:09;2.80;30.60
1455;DHT22;721;48.168;12.818;2022-12-08T02:51:39;2.70;32.00
1455;DHT22;721;48.168;12.818;2022-12-08T02:54:06;2.70;32.30
1455;DHT22;721;48.168;12.818;2022-12-08T02:56:43;2.80;33.00
1455;DHT22;721;48.168;12.818;2022-12-08T02:59:24;2.70;30.90
1455;DHT22;721;48.168;12.818;2022-12-08T03:02:19;2.70;32.50
1455;DHT22;721;48.168;12.818;2022-12-08T03:04:56;2.60;33.60
1455;DHT22;721;48.168;12.818;2022-12-08T03:07:31;2.60;33.10
1455;DHT22;721;48.168;12.818;2022-12-08T03:10:05;2.70;34.80
1455;DHT22;721;48.168;12.818;2022-12-08T03:12:36;2.50;34.20
1455;DHT22;721;48.168;12.818;2022-12-08T03:15:07;2.50;33.70
1455;DHT22;721;48.168;12.818;2022-12-08T03:17:36;2.40;36.30
1455;DHT22;721;48.168;12.818;2022-12-08T03:20:10;2.30;37.00
1455;DHT22;721;48.168;12.818;2022-12-08T03:22:40;2.40;36.60
1455;DHT22;721;48.168;12.818;2022-12-08T03:25:09;2.30;37.10
1455;DHT22;721;48.168;12.818;2022-12-08T03:27:38;2.40;35.50
1455;DHT22;721;48.168;12.818;2022-12-08T03:30:06;2.40;35.30
1455;DHT22;721;48.168;12.818;2022-12-08T03:32:35;2.40;37.50
1455;DHT22;721;48.168;12.818;2022-12-08T03:35:06;2.80;34.40
1455;DHT22;721;48.168;12.818;2022-12-08T03:37:35;2.90;30.70
1455;DHT22;721;48.168;12.818;2022-12-08T03:40:02;2.80;30.60
1455;DHT22;721;48.168;12.818;2022-12-08T03:42:29;2.60;31.80
1455;DHT22;721;48.168;12.818;2022-12-08T03:44:56;2.40;35.50
1455;DHT22;721;48.168;12.818;2022-12-08T03:47:23;2.30;37.90
1455;DHT22;721;48.168;12.818;2022-12-08T03:49:50;2.60;34.50
1455;DHT22;721;48.168;12.818;2022-12-08T03:52:18;2.50;34.50
1455;DHT22;721;48.168;12.818;2022-12-08T03:54:45;2.70;32.40
1455;DHT22;721;48.168;12.818;2022-12-08T03:57:13;2.80;30.10
1455;DHT22;721;48.168;12.818;2022-12-08T03:59:40;2.70;30.80
1455;DHT22;721;48.168;12.818;2022-12-08T04:02:07;2.50;33.70
1455;DHT22;721;48.168;12.818;2022-12-08T04:04:34;2.40;35.70
1455;DHT22;721;48.168;12.818;2022-12-08T04:07:00;2.80;33.30
1455;DHT22;721;48.168;12.818;2022-12-08T04:09:29;2.30;34.50
1455;DHT22;721;48.168;12.818;2022-12-08T04:11:56;2.20;36.00
1455;DHT22;721;48.168;12.818;2022-12-08T04:14:23;2.40;35.50
1455;DHT22;721;48.168;12.818;2022-12-08T04:16:50;2.60;33.20
1455;DHT22;721;48.168;12.818;2022-12-08T04:19:17;2.50;33.00
1455;DHT22;721;48.168;12.818;2022-12-08T04:21:44;2.50;32.90
1455;DHT22;721;48.168;12.818;2022-12-08T04:24:11;2.50;32.80
1455;DHT22;721;48.168;12.818;2022-12-08T04:26:39;2.50;32.60
1455;DHT22;721;48.168;12.818;2022-12-08T04:29:06;2.40;33.20
1455;DHT22;721;48.168;12.818;2022-12-08T04:31:33;2.30;34.50
1455;DHT22;721;48.168;12.818;2022-12-08T04:34:00;2.20;34.90
1455;DHT22;721;48.168;12.818;2022-12-08T04:36:27;2.20;36.60
1455;DHT22;721;48.168;12.818;2022-12-08T04:38:54;2.40;34.60
1455;DHT22;721;48.168;12.818;2022-12-08T04:41:21;2.40;32.60
1455;DHT22;721;48.168;12.818;2022-12-08T04:43:49;2.40;32.80
1455;DHT22;721;48.168;12.818;2022-12-08T04:46:16;2.30;33.90
1455;DHT22;721;48.168;12.818;2022-12-08T04:48:43;2.20;34.70
1455;DHT22;721;48.168;12.818;2022-12-08T04:51:14;2.20;35.30
1455;DHT22;721;48.168;12.818;2022-12-08T04:53:42;2.10;37.70
1455;DHT22;721;48.168;12.818;2022-12-08T04:56:11;2.20;36.60
1455;DHT22;721;48.168;12.818;2022-12-08T04:58:50;2.20;36.30
1455;DHT22;721;48.168;12.818;2022-12-08T05:01:17;2.20;36.30
1455;DHT22;721;48.168;12.818;2022-12-08T05:03:44;2.20;36.90
1455;DHT22;721;48.168;12.818;2022-12-08T05:06:12;2.20;35.90
1455;DHT22;721;48.168;12.818;2022-12-08T05:08:40;2.20;36.10
1455;DHT22;721;48.168;12.818;2022-12-08T05:11:09;2.20;34.70
1455;DHT22;721;48.168;12.818;2022-12-08T05:13:51;2.20;35.30
1455;DHT22;721;48.168;12.818;2022-12-08T05:16:18;2.30;36.60
1455;DHT22;721;48.168;12.818;2022-12-08T05:18:45;2.20;36.70
1455;DHT22;721;48.168;12.818;2022-12-08T05:21:12;2.20;35.10
1455;DHT22;721;48.168;12.818;2022-12-08T05:23:39;2.20;35.40
1455;DHT22;721;48.168;12.818;2022-12-08T05:26:06;2.30;34.60
1455;DHT22;721;48.168;12.818;2022-12-08T05:28:33;2.50;32.30
1455;DHT22;721;48.168;12.818;2022-12-08T05:31:01;2.70;30.70
1455;DHT22;721;48.168;12.818;2022-12-08T05:33:28;2.60;29.10
1455;DHT22;721;48.168;12.818;2022-12-08T05:35:55;2.70;29.40
1455;DHT22;721;48.168;12.818;2022-12-08T05:38:22;2.70;28.10
1455;DHT22;721;48.168;12.818;2022-12-08T05:40:49;2.70;29.00
1455;DHT22;721;48.168;12.818;2022-12-08T05:43:22;2.80;27.10
1455;DHT22;721;48.168;12.818;2022-12-08T05:45:49;2.90;26.10
1455;DHT22;721;48.168;12.818;2022-12-08T05:48:17;2.90;25.40
1455;DHT22;721;48.168;12.818;2022-12-08T05:50:45;2.90;26.40
1455;DHT22;721;48.168;12.818;2022-12-08T05:53:13;2.90;26.00
1455;DHT22;721;48.168;12.818;2022-12-08T05:55:40;2.90;25.00
1455;DHT22;721;48.168;12.818;2022-12-08T05:58:11;3.00;24.30
1455;DHT22;721;48.168;12.818;2022-12-08T06:00:38;2.90;24.50
1455;DHT22;721;48.168;12.818;2022-12-08T06:03:10;2.80;25.50
1455;DHT22;721;48.168;12.818;2022-12-08T06:05:39;2.70;26.50
1455;DHT22;721;48.168;12.818;2022-12-08T06:08:06;2.80;25.90
1455;DHT22;721;48.168;12.818;2022-12-08T06:10:34;2.60;26.70
1455;DHT22;721;48.168;12.818;2022-12-08T06:13:01;2.70;26.30
1455;DHT22;721;48.168;12.818;2022-12-08T06:15:28;2.80;26.30
1455;DHT22;721;48.168;12.818;2022-12-08T06:17:55;2.90;25.00
1455;DHT22;721;48.168;12.818;2022-12-08T06:20:25;2.90;24.40
1455;DHT22;721;48.168;12.818;2022-12-08T06:22:55;2.90;24.80
1455;DHT22;721;48.168;12.818;2022-12-08T06:25:22;2.70;26.30
1455;DHT22;721;48.168;12.818;2022-12-08T06:27:53;2.50;28.40
1455;DHT22;721;48.168;12.818;2022-12-08T06:30:24;2.50;28.00
1455;DHT22;721;48.168;12.818;2022-12-08T06:32:54;2.70;26.80
1455;DHT22;721;48.168;12.818;2022-12-08T06:35:21;2.70;24.90
1455;DHT22;721;48.168;12.818;2022-12-08T06:37:48;2.50;27.00
1455;DHT22;721;48.168;12.818;2022-12-08T06:40:18;2.40;27.10
1455;DHT22;721;48.168;12.818;2022-12-08T06:42:45;2.20;30.00
1455;DHT22;721;48.168;12.818;2022-12-08T06:45:14;2.40;28.80
1455;DHT22;721;48.168;12.818;2022-12-08T06:47:45;2.40;27.80
1455;DHT22;721;48.168;12.818;2022-12-08T06:50:12;2.50;26.60
1455;DHT22;721;48.168;12.818;2022-12-08T06:52:40;2.60;24.50
1455;DHT22;721;48.168;12.818;2022-12-08T06:55:08;2.60;26.10
1455;DHT22;721;48.168;12.818;2022-12-08T06:57:39;2.50;25.30
1455;DHT22;721;48.168;12.818;2022-12-08T07:00:07;2.40;27.10
1455;DHT22;721;48.168;12.818;2022-12-08T07:02:34;2.50;25.70
1455;DHT22;721;48.168;12.818;2022-12-08T07:05:01;2.60;24.00
1455;DHT22;721;48.168;12.818;2022-12-08T07:07:28;2.40;25.30
1455;DHT22;721;48.168;12.818;2022-12-08T07:09:55;2.50;24.60
1455;DHT22;721;48.168;12.818;2022-12-08T07:12:25;2.20;26.50
1455;DHT22;721;48.168;12.818;2022-12-08T07:14:53;2.20;26.50
1455;DHT22;721;48.168;12.818;2022-12-08T07:17:21;2.00;28.10
1455;DHT22;721;48.168;12.818;2022-12-08T07:19:48;2.20;27.50
1455;DHT22;721;48.168;12.818;2022-12-08T07:22:21;2.40;26.20
1455;DHT22;721;48.168;12.818;2022-12-08T07:24:48;2.50;24.50
1455;DHT22;721;48.168;12.818;2022-12-08T07:27:16;2.50;24.40
1455;DHT22;721;48.168;12.818;2022-12-08T07:29:43;2.50;23.90
1455;DHT22;721;48.168;12.818;2022-12-08T07:32:18;2.30;25.40
1455;DHT22;721;48.168;12.818;2022-12-08T07:34:45;2.20;27.60
1455;DHT22;721;48.168;12.818;2022-12-08T07:37:12;2.30;25.80
1455;DHT22;721;48.168;12.818;2022-12-08T07:39:39;2.30;25.00
1455;DHT22;721;48.168;12.818;2022-12-08T07:42:07;2.30;26.00
1455;DHT22;721;48.168;12.818;2022-12-08T07:44:34;2.20;25.40
1455;DHT22;721;48.168;12.818;2022-12-08T07:47:01;2.00;27.20
1455;DHT22;721;48.168;12.818;2022-12-08T07:49:29;1.80;29.00
1455;DHT22;721;48.168;12.818;2022-12-08T07:51:56;1.80;30.00
1455;DHT22;721;48.168;12.818;2022-12-08T07:54:23;2.00;30.60
1455;DHT22;721;48.168;12.818;2022-12-08T07:56:50;1.80;32.20
1455;DHT22;721;48.168;12.818;2022-12-08T07:59:17;1.80;30.10
1455;DHT22;721;48.168;12.818;2022-12-08T08:01:43;1.90;30.50
1455;DHT22;721;48.168;12.818;2022-12-08T08:04:12;1.90;30.90
1455;DHT22;721;48.168;12.818;2022-12-08T08:06:40;2.20;29.30
1455;DHT22;721;48.168;12.818;2022-12-08T08:09:07;2.50;27.20
1455;DHT22;721;48.168;12.818;2022-12-08T08:11:35;2.40;27.70
1455;DHT22;721;48.168;12.818;2022-12-08T08:14:02;2.30;26.00
1455;DHT22;721;48.168;12.818;2022-12-08T08:16:29;2.20;26.90
1455;DHT22;721;48.168;12.818;2022-12-08T08:18:56;1.90;28.40
1455;DHT22;721;48.168;12.818;2022-12-08T08:21:23;2.20;28.10
1455;DHT22;721;48.168;12.818;2022-12-08T08:23:51;2.40;25.40
1455;DHT22;721;48.168;12.818;2022-12-08T08:26:18;2.50;25.40
1455;DHT22;721;48.168;12.818;2022-12-08T08:28:45;2.70;24.30
1455;DHT22;721;48.168;12.818;2022-12-08T08:31:17;2.70;24.50
1455;DHT22;721;48.168;12.818;2022-12-08T08:33:44;2.80;24.50
1455;DHT22;721;48.168;12.818;2022-12-08T08:36:13;2.40;24.70
1455;DHT22;721;48.168;12.818;2022-12-08T08:38:43;2.40;25.60
1455;DHT22;721;48.168;12.818;2022-12-08T08:41:12;2.60;24.10
1455;DHT22;721;48.168;12.818;2022-12-08T08:43:39;2.50;25.80
1455;DHT22;721;48.168;12.818;2022-12-08T08:46:06;2.60;25.40
1455;DHT22;721;48.168;12.818;2022-12-08T08:48:34;2.50;26.80
1455;DHT22;721;48.168;12.818;2022-12-08T08:51:08;2.50;25.80
1455;DHT22;721;48.168;12.818;2022-12-08T08:53:35;2.40;26.90
1455;DHT22;721;48.168;12.818;2022-12-08T08:56:15;2.40;24.40
1455;DHT22;721;48.168;12.818;2022-12-08T08:58:42;2.60;25.20
1455;DHT22;721;48.168;12.818;2022-12-08T09:01:14;2.40;24.60
1455;DHT22;721;48.168;12.818;2022-12-08T09:03:44;2.60;25.00
1455;DHT22;721;48.168;12.818;2022-12-08T09:06:12;2.70;23.80
1455;DHT22;721;48.168;12.818;2022-12-08T09:08:39;2.60;25.60
1455;DHT22;721;48.168;12.818;2022-12-08T09:11:07;2.80;23.60
1455;DHT22;721;48.168;12.818;2022-12-08T09:13:35;2.90;22.90
1455;DHT22;721;48.168;12.818;2022-12-08T09:16:03;3.00;23.00
1455;DHT22;721;48.168;12.818;2022-12-08T09:18:31;2.80;22.50
1455;DHT22;721;48.168;12.818;2022-12-08T09:21:07;2.90;22.60
1455;DHT22;721;48.168;12.818;2022-12-08T09:23:36;3.00;22.90
1455;DHT22;721;48.168;12.818;2022-12-08T09:26:04;2.90;22.50
1455;DHT22;721;48.168;12.818;2022-12-08T09:28:36;3.00;22.60
1455;DHT22;721;48.168;12.818;2022-12-08T09:31:03;3.10;22.20
1455;DHT22;721;48.168;12.818;2022-12-08T09:33:34;3.10;21.80
1455;DHT22;721;48.168;12.818;2022-12-08T09:36:51;2.90;21.80
1455;DHT22;721;48.168;12.818;2022-12-08T09:39:21;3.10;21.50
1455;DHT22;721;48.168;12.818;2022-12-08T09:41:49;2.90;22.50
1455;DHT22;721;48.168;12.818;2022-12-08T09:44:36;3.10;22.70
1455;DHT22;721;48.168;12.818;2022-12-08T09:47:14;3.10;23.30
1455;DHT22;721;48.168;12.818;2022-12-08T09:49:45;3.20;20.60
1455;DHT22;721;48.168;12.818;2022-12-08T09:52:19;3.00;21.70
1455;DHT22;721;48.168;12.818;2022-12-08T09:54:46;2.90;22.00
1455;DHT22;721;48.168;12.818;2022-12-08T09:57:27;3.20;21.20
1455;DHT22;721;48.168;12.818;2022-12-08T10:00:02;3.30;19.50
1455;DHT22;721;48.168;12.818;2022-12-08T10:02:30;3.30;20.10
1455;DHT22;721;48.168;12.818;2022-12-08T10:04:58;3.20;20.20
1455;DHT22;721;48.168;12.818;2022-12-08T10:07:37;3.00;21.70
1455;DHT22;721;48.168;12.818;2022-12-08T10:10:25;3.20;20.60
1455;DHT22;721;48.168;12.818;2022-12-08T10:13:00;3.30;21.00
1455;DHT22;721;48.168;12.818;2022-12-08T10:15:52;3.40;21.30
1455;DHT22;721;48.168;12.818;2022-12-08T10:18:26;3.60;20.60
1455;DHT22;721;48.168;12.818;2022-12-08T10:20:56;3.90;18.70
1455;DHT22;721;48.168;12.818;2022-12-08T10:23:39;3.90;16.70
1455;DHT22;721;48.168;12.818;2022-12-08T10:26:10;3.80;16.60
1455;DHT22;721;48.168;12.818;2022-12-08T10:28:38;3.90;16.80
1455;DHT22;721;48.168;12.818;2022-12-08T10:31:09;4.00;16.70
1455;DHT22;721;48.168;12.818;2022-12-08T10:33:39;4.00;16.70
1455;DHT22;721;48.168;12.818;2022-12-08T10:36:06;4.10;15.50
1455;DHT22;721;48.168;12.818;2022-12-08T10:38:37;4.30;15.60
1455;DHT22;721;48.168;12.818;2022-12-08T10:41:10;4.40;13.90
1455;DHT22;721;48.168;12.818;2022-12-08T10:43:41;4.30;15.60
1455;DHT22;721;48.168;12.818;2022-12-08T10:46:13;4.60;13.90
1455;DHT22;721;48.168;12.818;2022-12-08T10:48:50;4.70;14.20
1455;DHT22;721;48.168;12.818;2022-12-08T10:51:27;4.70;14.10
1455;DHT22;721;48.168;12.818;2022-12-08T10:53:55;5.00;12.10
1455;DHT22;721;48.168;12.818;2022-12-08T10:56:24;5.10;11.40
1455;DHT22;721;48.168;12.818;2022-12-08T10:59:06;5.30;11.70
1455;DHT22;721;48.168;12.818;2022-12-08T11:01:39;5.60;9.40
1455;DHT22;721;48.168;12.818;2022-12-08T11:04:12;5.60;8.40
1455;DHT22;721;48.168;12.818;2022-12-08T11:06:40;5.70;8.90
1455;DHT22;721;48.168;12.818;2022-12-08T11:09:23;5.80;6.00
1455;DHT22;721;48.168;12.818;2022-12-08T11:11:53;6.10;6.90
1455;DHT22;721;48.168;12.818;2022-12-08T11:14:23;6.10;5.30
1455;DHT22;721;48.168;12.818;2022-12-08T11:16:54;6.20;4.80
1455;DHT22;721;48.168;12.818;2022-12-08T11:19:25;6.30;4.80
1455;DHT22;721;48.168;12.818;2022-12-08T11:21:53;6.20;3.80
1455;DHT22;721;48.168;12.818;2022-12-08T11:24:22;6.10;4.00
1455;DHT22;721;48.168;12.818;2022-12-08T11:26:53;6.40;4.10
1455;DHT22;721;48.168;12.818;2022-12-08T11:29:20;6.30;5.60
1455;DHT22;721;48.168;12.818;2022-12-08T11:31:50;6.40;3.10
1455;DHT22;721;48.168;12.818;2022-12-08T11:34:33;6.30;3.70
1455;DHT22;721;48.168;12.818;2022-12-08T11:37:03;6.60;3.20
1455;DHT22;721;48.168;12.818;2022-12-08T11:39:33;6.70;2.20
1455;DHT22;721;48.168;12.818;2022-12-08T11:42:02;6.90;2.30
1455;DHT22;721;48.168;12.818;2022-12-08T11:44:37;7.20;1.00
1455;DHT22;721;48.168;12.818;2022-12-08T11:47:12;7.10;1.00
1455;DHT22;721;48.168;12.818;2022-12-08T11:49:43;7.00;1.00
1455;DHT22;721;48.168;12.818;2022-12-08T11:52:20;6.90;1.00
1455;DHT22;721;48.168;12.818;2022-12-08T11:54:56;6.80;1.00
1455;DHT22;721;48.168;12.818;2022-12-08T11:57:26;6.80;1.00
1455;DHT22;721;48.168;12.818;2022-12-08T11:59:56;7.00;1.00
1455;DHT22;721;48.168;12.818;2022-12-08T12:02:25;7.10;1.00
1455;DHT22;721;48.168;12.818;2022-12-08T12:04:57;7.10;1.00
1455;DHT22;721;48.168;12.818;2022-12-08T12:07:51;7.60;1.00
1455;DHT22;721;48.168;12.818;2022-12-08T12:12:58;7.40;1.00
1455;DHT22;721;48.168;12.818;2022-12-08T12:18:40;7.30;1.00
1455;DHT22;721;48.168;12.818;2022-12-08T12:21:15;7.20;1.00
1455;DHT22;721;48.168;12.818;2022-12-08T12:23:47;7.20;1.00
1455;DHT22;721;48.168;12.818;2022-12-08T12:26:22;6.90;1.00
1455;DHT22;721;48.168;12.818;2022-12-08T12:28:53;6.90;1.00
1455;DHT22;721;48.168;12.818;2022-12-08T12:31:24;7.20;1.00
1455;DHT22;721;48.168;12.818;2022-12-08T12:33:56;7.40;1.00
1455;DHT22;721;48.168;12.818;2022-12-08T12:36:31;7.50;1.00
1455;DHT22;721;48.168;12.818;2022-12-08T12:39:11;7.70;1.00
1455;DHT22;721;48.168;12.818;2022-12-08T12:41:43;7.90;1.00
1455;DHT22;721;48.168;12.818;2022-12-08T12:44:24;8.00;1.00
1455;DHT22;721;48.168;12.818;2022-12-08T12:47:04;8.10;1.00
1455;DHT22;721;48.168;12.818;2022-12-08T12:49:50;8.40;1.00
1455;DHT22;721;48.168;12.818;2022-12-08T12:52:44;8.60;1.00
1455;DHT22;721;48.168;12.818;2022-12-08T12:55:27;8.90;1.00
1455;DHT22;721;48.168;12.818;2022-12-08T12:57:55;8.90;1.00
1455;DHT22;721;48.168;12.818;2022-12-08T13:00:24;8.80;1.00
1455;DHT22;721;48.168;12.818;2022-12-08T13:02:53;8.70;1.00
1455;DHT22;721;48.168;12.818;2022-12-08T13:05:23;9.30;1.00
1455;DHT22;721;48.168;12.818;2022-12-08T13:07:54;9.70;1.00
1455;DHT22;721;48.168;12.818;2022-12-08T13:10:24;10.20;1.00
1455;DHT22;721;48.168;12.818;2022-12-08T13:13:05;9.70;1.00
1455;DHT22;721;48.168;12.818;2022-12-08T13:15:35;9.50;1.00
1455;DHT22;721;48.168;12.818;2022-12-08T13:18:04;9.70;1.00
1455;DHT22;721;48.168;12.818;2022-12-08T13:20:39;10.00;1.00
1455;DHT22;721;48.168;12.818;2022-12-08T13:23:25;9.90;1.00
1455;DHT22;721;48.168;12.818;2022-12-08T13:26:15;10.00;1.00
1455;DHT22;721;48.168;12.818;2022-12-08T13:29:16;9.50;1.00
1455;DHT22;721;48.168;12.818;2022-12-08T13:31:46;9.10;1.00
1455;DHT22;721;48.168;12.818;2022-12-08T13:34:15;8.90;1.00
1455;DHT22;721;48.168;12.818;2022-12-08T13:36:51;8.70;1.00
1455;DHT22;721;48.168;12.818;2022-12-08T13:39:24;8.70;1.00
1455;DHT22;721;48.168;12.818;2022-12-08T13:41:57;8.70;1.00
1455;DHT22;721;48.168;12.818;2022-12-08T13:44:31;8.60;1.00
1455;DHT22;721;48.168;12.818;2022-12-08T13:47:01;8.60;1.00
1455;DHT22;721;48.168;12.818;2022-12-08T13:49:34;8.50;1.00
1455;DHT22;721;48.168;12.818;2022-12-08T13:52:02;8.40;1.00
1455;DHT22;721;48.168;12.818;2022-12-08T13:54:35;8.20;1.00
1455;DHT22;721;48.168;12.818;2022-12-08T13:57:05;8.00;1.00
1455;DHT22;721;48.168;12.818;2022-12-08T13:59:42;8.00;1.00
1455;DHT22;721;48.168;12.818;2022-12-08T14:02:15;8.20;1.00
1455;DHT22;721;48.168;12.818;2022-12-08T14:04:44;8.20;1.00
1455;DHT22;721;48.168;12.818;2022-12-08T14:07:13;8.20;1.00
1455;DHT22;721;48.168;12.818;2022-12-08T14:09:42;8.40;1.00
1455;DHT22;721;48.168;12.818;2022-12-08T14:12:17;8.80;1.00
1455;DHT22;721;48.168;12.818;2022-12-08T14:14:49;9.00;1.00
1455;DHT22;721;48.168;12.818;2022-12-08T14:17:18;9.20;1.00
1455;DHT22;721;48.168;12.818;2022-12-08T14:19:52;9.50;1.00
1455;DHT22;721;48.168;12.818;2022-12-08T14:22:20;9.60;1.00
1455;DHT22;721;48.168;12.818;2022-12-08T14:24:51;9.60;1.00
1455;DHT22;721;48.168;12.818;2022-12-08T14:27:21;9.30;1.00
1455;DHT22;721;48.168;12.818;2022-12-08T14:29:50;8.90;1.00
1455;DHT22;721;48.168;12.818;2022-12-08T14:32:29;8.50;1.00
1455;DHT22;721;48.168;12.818;2022-12-08T14:35:00;8.30;1.00
1455;DHT22;721;48.168;12.818;2022-12-08T14:37:30;8.00;1.00
1455;DHT22;721;48.168;12.818;2022-12-08T14:40:03;7.80;1.00
1455;DHT22;721;48.168;12.818;2022-12-08T14:42:30;7.70;1.00
1455;DHT22;721;48.168;12.818;2022-12-08T14:45:11;7.60;1.00
1455;DHT22;721;48.168;12.818;2022-12-08T14:47:38;7.40;1.00
1455;DHT22;721;48.168;12.818;2022-12-08T14:50:37;7.30;1.00
1455;DHT22;721;48.168;12.818;2022-12-08T14:53:10;7.10;1.00
1455;DHT22;721;48.168;12.818;2022-12-08T14:55:41;7.00;1.00
1455;DHT22;721;48.168;12.818;2022-12-08T14:58:16;6.90;1.00
1455;DHT22;721;48.168;12.818;2022-12-08T15:00:45;6.80;1.00
1455;DHT22;721;48.168;12.818;2022-12-08T15:03:13;6.60;1.00
1455;DHT22;721;48.168;12.818;2022-12-08T15:05:41;6.60;1.00
1455;DHT22;721;48.168;12.818;2022-12-08T15:08:11;6.50;1.00
1455;DHT22;721;48.168;12.818;2022-12-08T15:10:39;6.50;1.00
1455;DHT22;721;48.168;12.818;2022-12-08T15:13:23;6.50;1.00
1455;DHT22;721;48.168;12.818;2022-12-08T15:15:51;6.40;1.00
1455;DHT22;721;48.168;12.818;2022-12-08T15:18:21;6.20;1.00
1455;DHT22;721;48.168;12.818;2022-12-08T15:21:00;6.20;1.00
1455;DHT22;721;48.168;12.818;2022-12-08T15:23:28;6.10;1.00
1455;DHT22;721;48.168;12.818;2022-12-08T15:25:58;6.10;1.00
1455;DHT22;721;48.168;12.818;2022-12-08T15:28:27;6.00;1.00
1455;DHT22;721;48.168;12.818;2022-12-08T15:30:55;5.90;1.00
1455;DHT22;721;48.168;12.818;2022-12-08T15:33:22;5.80;1.00
1455;DHT22;721;48.168;12.818;2022-12-08T15:35:50;5.70;1.00
1455;DHT22;721;48.168;12.818;2022-12-08T15:38:20;5.70;1.00
1455;DHT22;721;48.168;12.818;2022-12-08T15:40:48;5.50;1.00
1455;DHT22;721;48.168;12.818;2022-12-08T15:43:17;5.50;1.00
1455;DHT22;721;48.168;12.818;2022-12-08T15:45:44;5.40;1.00
1455;DHT22;721;48.168;12.818;2022-12-08T15:48:15;5.40;1.00
1455;DHT22;721;48.168;12.818;2022-12-08T15:50:43;5.30;1.00
1455;DHT22;721;48.168;12.818;2022-12-08T15:53:10;5.30;1.00
1455;DHT22;721;48.168;12.818;2022-12-08T15:55:37;5.20;1.00
1455;DHT22;721;48.168;12.818;2022-12-08T15:58:04;5.10;1.00
1455;DHT22;721;48.168;12.818;2022-12-08T16:00:36;5.10;1.00
1455;DHT22;721;48.168;12.818;2022-12-08T16:03:03;4.90;1.90
1455;DHT22;721;48.168;12.818;2022-12-08T16:05:33;4.90;2.10
1455;DHT22;721;48.168;12.818;2022-12-08T16:08:02;4.80;2.30
1455;DHT22;721;48.168;12.818;2022-12-08T16:10:29;4.80;2.70
1455;DHT22;721;48.168;12.818;2022-12-08T16:12:56;4.80;2.80
1455;DHT22;721;48.168;12.818;2022-12-08T16:15:42;4.70;3.20
1455;DHT22;721;48.168;12.818;2022-12-08T16:18:15;4.70;3.50
1455;DHT22;721;48.168;12.818;2022-12-08T16:20:42;4.50;4.10
1455;DHT22;721;48.168;12.818;2022-12-08T16:23:09;4.40;4.60
1455;DHT22;721;48.168;12.818;2022-12-08T16:25:36;4.40;5.20
1455;DHT22;721;48.168;12.818;2022-12-08T16:28:03;4.40;5.40
1455;DHT22;721;48.168;12.818;2022-12-08T16:30:30;4.30;6.20
1455;DHT22;721;48.168;12.818;2022-12-08T16:32:59;4.40;6.20
1455;DHT22;721;48.168;12.818;2022-12-08T16:35:26;4.20;6.30
1455;DHT22;721;48.168;12.818;2022-12-08T16:37:53;4.20;6.10
1455;DHT22;721;48.168;12.818;2022-12-08T16:40:20;4.20;6.40
1455;DHT22;721;48.168;12.818;2022-12-08T16:42:47;4.20;6.40
1455;DHT22;721;48.168;12.818;2022-12-08T16:45:16;4.10;6.90
1455;DHT22;721;48.168;12.818;2022-12-08T16:47:45;4.10;6.80
1455;DHT22;721;48.168;12.818;2022-12-08T16:50:15;4.10;7.30
1455;DHT22;721;48.168;12.818;2022-12-08T16:52:43;4.00;7.20
1455;DHT22;721;48.168;12.818;2022-12-08T16:55:13;4.00;6.70
1455;DHT22;721;48.168;12.818;2022-12-08T16:57:42;4.00;7.20